Time;durP1;ratioP1;P1;durP2;ratioP2;P2;SDS_P1;SDS_P2;PMS_P1;PMS_P2;Temp;Humidity;BMP_temperature;BMP_pressure;BME280_temperature;BME280_humidity;BME280_pressure;Samples;Min_cycle;Max_cycle;Signal;HPM_P1;HPM_P2
2021/08/10 00:24:27;;;;;;;4.40;2.53;;;;;;;15.60;87.21;98208.88;5025032;28;20902;-62
2021/08/10 00:26:53;;;;;;;4.85;3.05;;;;;;;15.06;90.16;98200.56;5020912;28;20033;-60
2021/08/10 00:29:18;;;;;;;5.10;2.90;;;;;;;14.97;89.91;98204.56;5027131;28;20049;-60
2021/08/10 00:31:43;;;;;;;5.72;2.75;;;;;;;15.00;90.25;98212.28;5025464;28;20641;-61
2021/08/10 00:34:11;;;;;;;4.05;2.67;;;;;;;15.20;89.58;98215.53;5026022;28;20495;-62
2021/08/10 00:36:37;;;;;;;5.68;2.90;;;;;;;15.12;89.29;98208.09;5025773;28;20155;-62
2021/08/10 00:39:05;;;;;;;5.78;3.28;;;;;;;14.83;90.26;98207.97;5025032;28;20026;-62
2021/08/10 00:41:31;;;;;;;6.18;3.10;;;;;;;14.87;90.24;98208.63;5026549;28;20068;-62
2021/08/10 00:43:56;;;;;;;5.20;3.00;;;;;;;14.59;91.98;98210.16;5024658;28;20029;-61
2021/08/10 00:46:24;;;;;;;4.75;2.97;;;;;;;14.67;92.17;98207.09;5024982;28;20421;-60
2021/08/10 00:48:49;;;;;;;7.20;3.80;;;;;;;14.80;91.10;98202.88;5024191;28;20487;-61
2021/08/10 00:51:15;;;;;;;6.50;3.13;;;;;;;14.58;92.54;98203.19;5026810;28;20049;-61
2021/08/10 00:53:41;;;;;;;4.00;2.90;;;;;;;14.75;91.86;98204.88;5025588;28;20030;-59
2021/08/10 00:56:07;;;;;;;6.65;2.92;;;;;;;14.71;91.63;98208.63;5023172;28;20043;-60
2021/08/10 00:58:34;;;;;;;6.43;2.90;;;;;;;14.79;91.23;98210.81;5024489;28;20630;-62
2021/08/10 01:00:59;;;;;;;4.05;2.55;;;;;;;14.94;90.59;98214.38;5027733;28;20030;-59
2021/08/10 01:03:25;;;;;;;6.95;2.80;;;;;;;14.90;90.57;98207.59;5027250;28;20078;-62
2021/08/10 01:05:51;;;;;;;6.35;2.92;;;;;;;14.71;91.88;98203.38;5026591;28;20069;-62
2021/08/10 01:08:23;;;;;;;7.97;3.20;;;;;;;14.68;92.02;98203.53;5024209;28;20060;-60
2021/08/10 01:11:21;;;;;;;5.00;3.13;;;;;;;14.56;92.87;98204.19;5024156;28;20047;-60
2021/08/10 01:14:12;;;;;;;5.32;2.92;;;;;;;14.53;92.66;98193.84;4999339;28;20136;-62
2021/08/10 01:16:49;;;;;;;4.07;2.72;;;;;;;14.89;91.71;98200.66;5024556;28;20471;-60
2021/08/10 01:19:37;;;;;;;5.43;2.90;;;;;;;14.38;93.12;98198.97;5025132;28;20435;-62
2021/08/10 01:22:06;;;;;;;8.13;2.70;;;;;;;14.29;94.18;98190.75;5023740;28;20036;-60
2021/08/10 01:24:38;;;;;;;4.68;2.88;;;;;;;14.37;93.90;98196.41;5026326;28;20141;-60
2021/08/10 01:27:27;;;;;;;6.80;2.95;;;;;;;14.61;91.86;98208.28;5025202;28;20029;-60
2021/08/10 01:30:07;;;;;;;3.35;2.25;;;;;;;15.08;91.00;98206.59;5023627;28;20021;-60
2021/08/10 01:32:36;;;;;;;4.70;2.47;;;;;;;15.34;89.76;98212.16;5026204;28;20691;-60
2021/08/10 01:35:02;;;;;;;4.93;2.70;;;;;;;15.18;88.65;98202.50;5025063;28;20056;-62
2021/08/10 01:37:29;;;;;;;6.05;3.22;;;;;;;14.23;93.36;98207.66;5026155;28;20046;-62
2021/08/10 01:39:58;;;;;;;6.78;3.25;;;;;;;13.94;94.91;98210.00;5024069;28;20040;-62
2021/08/10 01:42:25;;;;;;;10.23;3.53;;;;;;;14.01;94.64;98206.16;5025624;28;20544;-64
2021/08/10 01:44:53;;;;;;;7.05;3.10;;;;;;;13.94;94.63;98207.41;5027183;28;20025;-61
2021/08/10 01:47:19;;;;;;;7.03;3.17;;;;;;;13.94;94.34;98207.41;5025020;28;20038;-62
2021/08/10 01:49:46;;;;;;;4.97;2.92;;;;;;;13.83;94.68;98204.47;5022178;28;20871;-60
2021/08/10 01:52:24;;;;;;;5.40;3.05;;;;;;;13.81;95.32;98207.16;5025300;28;20025;-60
2021/08/10 01:54:50;;;;;;;6.35;2.95;;;;;;;13.98;94.26;98208.91;5026408;28;20786;-61
2021/08/10 01:57:19;;;;;;;5.68;3.00;;;;;;;13.81;94.19;98196.69;5026377;28;20131;-60
2021/08/10 01:59:50;;;;;;;5.18;3.03;;;;;;;13.82;94.73;98202.75;5027279;28;20033;-63
2021/08/10 02:02:16;;;;;;;5.97;2.90;;;;;;;13.87;94.40;98200.75;5025607;28;20100;-59
2021/08/10 02:04:46;;;;;;;3.65;2.65;;;;;;;13.80;94.30;98200.25;5024148;28;20109;-61
2021/08/10 02:07:12;;;;;;;6.43;2.80;;;;;;;14.05;94.43;98210.31;5032063;28;20120;-60
2021/08/10 02:09:38;;;;;;;7.38;2.80;;;;;;;13.69;95.22;98190.31;5024484;28;20108;-63
2021/08/10 02:12:06;;;;;;;5.50;2.97;;;;;;;13.64;96.44;98187.06;5024275;28;20621;-59
2021/08/10 02:14:32;;;;;;;5.75;3.00;;;;;;;13.47;96.58;98197.53;5024021;28;20044;-62
2021/08/10 02:17:01;;;;;;;6.20;2.85;;;;;;;13.82;94.99;98192.28;5024879;28;20103;-60
2021/08/10 02:19:28;;;;;;;4.80;2.90;;;;;;;13.71;94.33;98190.22;5025056;28;20029;-61
2021/08/10 02:22:03;;;;;;;6.95;3.33;;;;;;;13.71;95.21;98195.47;5024571;28;20136;-61
2021/08/10 02:24:38;;;;;;;6.07;2.80;;;;;;;13.71;94.87;98190.22;5025955;28;20031;-62
2021/08/10 02:27:07;;;;;;;4.63;2.80;;;;;;;13.48;96.27;98189.59;5023778;28;20041;-60
2021/08/10 02:29:40;;;;;;;4.88;3.00;;;;;;;13.58;95.83;98183.88;5025549;28;20697;-60
2021/08/10 02:32:05;;;;;;;;;;;;;;;13.78;95.03;98190.75;5024925;28;20037;-62
2021/08/10 02:34:31;;;;;;;5.18;2.80;;;;;;;13.61;95.16;98183.75;5024730;28;19963;-61
2021/08/10 02:36:59;;;;;;;5.05;2.72;;;;;;;13.54;95.68;98177.94;5030445;28;20040;-62
2021/08/10 02:39:26;;;;;;;5.63;3.20;;;;;;;13.51;95.13;98172.88;5029334;28;20029;-61
2021/08/10 02:41:54;;;;;;;8.25;3.03;;;;;;;13.34;95.90;98178.09;5027763;28;20041;-60
2021/08/10 02:44:21;;;;;;;6.85;3.10;;;;;;;13.49;95.08;98177.31;5028952;28;20025;-61
2021/08/10 02:46:47;;;;;;;6.85;2.88;;;;;;;13.39;95.83;98176.09;5027879;28;20705;-61
2021/08/10 02:49:12;;;;;;;4.70;2.97;;;;;;;13.52;95.21;98173.72;5026408;28;20033;-61
2021/08/10 02:51:39;;;;;;;5.47;3.30;;;;;;;13.50;95.21;98173.81;5026891;28;20049;-61
2021/08/10 02:54:05;;;;;;;6.32;3.28;;;;;;;13.49;95.36;98172.09;5026947;28;20036;-61
2021/08/10 02:56:38;;;;;;;9.52;3.45;;;;;;;13.53;95.48;98170.16;5027361;28;20119;-64
2021/08/10 02:59:11;;;;;;;7.60;3.28;;;;;;;13.68;94.14;98170.25;5028695;28;20055;-62
2021/08/10 03:01:42;;;;;;;6.13;3.28;;;;;;;13.79;94.33;98171.47;5028364;28;20033;-62
2021/08/10 03:04:09;;;;;;;4.65;3.28;;;;;;;13.77;93.59;98174.19;5029801;28;20091;-62
2021/08/10 03:06:35;;;;;;;10.60;3.20;;;;;;;13.35;95.52;98174.56;5026657;28;20037;-60
2021/08/10 03:09:01;;;;;;;5.53;3.20;;;;;;;13.75;94.93;98170.78;5027152;28;20025;-61
2021/08/10 03:11:32;;;;;;;7.28;3.10;;;;;;;13.89;93.26;98167.44;5030426;28;20029;-59
2021/08/10 03:13:59;;;;;;;5.57;2.80;;;;;;;13.96;91.50;98166.19;5026966;28;20581;-60
2021/08/10 03:16:26;;;;;;;5.45;2.40;;;;;;;14.24;91.13;98168.25;5027962;28;20097;-61
2021/08/10 03:18:52;;;;;;;5.07;3.00;;;;;;;13.88;91.05;98166.59;5025408;28;20064;-61
2021/08/10 03:21:23;;;;;;;4.65;2.20;;;;;;;14.61;89.14;98161.03;5024905;28;20754;-61
2021/08/10 03:23:51;;;;;;;5.88;2.50;;;;;;;14.00;89.97;98170.34;5028626;28;20037;-59
2021/08/10 03:26:19;;;;;;;5.32;3.38;;;;;;;13.58;92.55;98166.41;5025503;28;20785;-60
2021/08/10 03:28:45;;;;;;;4.55;2.78;;;;;;;13.78;92.33;98169.78;5036017;28;20122;-61
2021/08/10 03:31:12;;;;;;;6.00;2.88;;;;;;;14.22;89.61;98172.69;5028879;28;20031;-60
2021/08/10 03:33:40;;;;;;;5.53;2.42;;;;;;;14.02;92.39;98165.91;5027570;28;20104;-61
2021/08/10 03:36:05;;;;;;;5.20;3.03;;;;;;;13.55;92.40;98163.94;5027930;28;20090;-62
2021/08/10 03:38:33;;;;;;;5.28;3.10;;;;;;;13.49;93.42;98164.22;5027396;28;20437;-61
2021/08/10 03:40:58;;;;;;;4.53;3.20;;;;;;;13.26;94.82;98155.72;5027753;28;20041;-60
2021/08/10 03:43:25;;;;;;;6.35;3.17;;;;;;;13.06;95.99;98155.84;5027958;28;20025;-60
2021/08/10 03:45:52;;;;;;;5.70;3.00;;;;;;;13.28;95.31;98155.66;5027119;28;20552;-60
2021/08/10 03:48:19;;;;;;;5.07;2.58;;;;;;;13.87;92.14;98150.94;5027426;28;20422;-62
2021/08/10 03:50:45;;;;;;;3.72;2.05;;;;;;;14.07;92.43;98158.63;5025861;28;20038;-62
2021/08/10 03:53:11;;;;;;;6.85;2.33;;;;;;;14.03;89.66;98151.84;5027399;28;20033;-61
2021/08/10 03:55:38;;;;;;;4.82;2.60;;;;;;;14.08;89.00;98162.94;5025957;28;20785;-60
2021/08/10 03:58:06;;;;;;;6.82;3.00;;;;;;;13.58;91.63;98160.31;5025987;28;20065;-62
2021/08/10 04:00:38;;;;;;;4.88;2.92;;;;;;;13.35;93.16;98156.22;5027104;28;20067;-63
2021/08/10 04:03:05;;;;;;;5.15;2.80;;;;;;;13.37;93.87;98160.47;5027218;28;20026;-61
2021/08/10 04:05:32;;;;;;;5.03;2.90;;;;;;;13.41;93.18;98158.53;5025537;28;20583;-62
2021/08/10 04:08:00;;;;;;;3.83;2.63;;;;;;;13.64;92.47;98158.22;5025602;28;20033;-60
2021/08/10 04:10:26;;;;;;;4.07;2.25;;;;;;;14.37;91.40;98152.69;5028030;28;20037;-62
2021/08/10 04:12:51;;;;;;;6.65;2.85;;;;;;;14.04;88.84;98150.06;5028218;28;20030;-62
2021/08/10 04:15:17;;;;;;;4.50;2.53;;;;;;;13.58;91.82;98153.31;5026698;28;20148;-60
2021/08/10 04:17:43;;;;;;;11.95;3.05;;;;;;;13.33;92.78;98142.38;5027598;28;20434;-60
2021/08/10 04:20:11;;;;;;;6.00;2.90;;;;;;;12.78;96.97;98138.00;5025860;28;20060;-62
2021/08/10 04:22:40;;;;;;;5.63;2.90;;;;;;;13.27;93.84;98136.47;5023852;28;20099;-60
2021/08/10 04:25:06;;;;;;;4.72;2.70;;;;;;;13.36;94.59;98142.19;5025803;28;20033;-60
2021/08/10 04:27:31;;;;;;;4.07;2.40;;;;;;;13.89;91.47;98141.22;5025524;28;20048;-62
2021/08/10 04:29:56;;;;;;;4.47;2.60;;;;;;;13.90;90.02;98142.94;5026312;28;20113;-60
2021/08/10 04:32:22;;;;;;;6.00;2.83;;;;;;;13.74;90.71;98142.03;5026253;28;20115;-61
2021/08/10 04:34:47;;;;;;;5.18;3.13;;;;;;;13.22;94.57;98141.09;5026372;28;20029;-60
2021/08/10 04:37:12;;;;;;;7.57;3.08;;;;;;;13.32;94.63;98145.91;5026131;28;20474;-62
2021/08/10 04:39:38;;;;;;;5.70;2.88;;;;;;;13.63;94.09;98139.94;5025463;28;20033;-60
2021/08/10 04:42:03;;;;;;;6.85;2.92;;;;;;;13.60;93.01;98135.72;5024759;28;20407;-60
2021/08/10 04:44:29;;;;;;;5.20;2.78;;;;;;;13.58;92.50;98129.72;5026961;28;20446;-60
2021/08/10 04:46:54;;;;;;;5.10;2.70;;;;;;;13.98;90.28;98132.88;5026005;28;20119;-61
2021/08/10 04:49:19;;;;;;;5.60;2.80;;;;;;;14.40;89.03;98146.41;5024438;28;20398;-60
2021/08/10 04:51:45;;;;;;;4.20;2.50;;;;;;;14.87;86.71;98145.59;5025367;28;20550;-59
2021/08/10 04:54:10;;;;;;;3.38;2.30;;;;;;;15.07;85.43;98147.09;5023780;28;20095;-60
2021/08/10 04:56:36;;;;;;;3.60;2.55;;;;;;;14.56;87.09;98154.31;5026213;28;20040;-60
2021/08/10 04:59:01;;;;;;;4.20;2.65;;;;;;;14.32;88.67;98157.31;5024887;28;20040;-61
2021/08/10 05:01:27;;;;;;;4.28;2.47;;;;;;;14.61;87.42;98166.28;5024048;28;20123;-60
2021/08/10 05:03:52;;;;;;;6.80;2.95;;;;;;;14.58;88.25;98178.72;5027078;28;20101;-61
2021/08/10 05:06:17;;;;;;;6.60;2.63;;;;;;;14.80;88.01;98165.25;5026358;28;20045;-62
2021/08/10 05:08:43;;;;;;;4.47;2.67;;;;;;;14.99;86.15;98170.31;5026119;28;20025;-62
2021/08/10 05:11:12;;;;;;;7.22;2.92;;;;;;;14.52;87.87;98165.88;5024436;28;20132;-63
2021/08/10 05:13:38;;;;;;;9.13;3.20;;;;;;;14.11;90.56;98171.56;5024431;28;20734;-60
2021/08/10 05:16:03;;;;;;;6.40;3.20;;;;;;;14.25;90.49;98163.81;5027207;28;20037;-62
2021/08/10 05:18:29;;;;;;;4.68;2.90;;;;;;;14.76;88.25;98174.22;5027338;28;20082;-62
2021/08/10 05:20:54;;;;;;;5.93;3.08;;;;;;;15.18;87.24;98165.72;5027249;28;20108;-63
2021/08/10 05:23:19;;;;;;;4.75;2.85;;;;;;;15.49;85.49;98169.19;5024229;28;20035;-62
2021/08/10 05:25:45;;;;;;;4.28;2.60;;;;;;;15.55;85.97;98178.50;5029152;28;20044;-61
2021/08/10 05:28:10;;;;;;;3.58;2.28;;;;;;;16.65;80.93;98178.03;5025929;28;20024;-60
2021/08/10 05:30:36;;;;;;;4.80;2.63;;;;;;;16.10;81.79;98184.94;5025868;28;20037;-62
2021/08/10 05:33:01;;;;;;;7.65;2.67;;;;;;;15.89;84.64;98185.28;5028391;28;20029;-60
2021/08/10 05:35:26;;;;;;;5.90;2.65;;;;;;;16.13;84.03;98182.97;5025760;28;20037;-63
2021/08/10 05:37:52;;;;;;;5.78;2.80;;;;;;;16.70;80.14;98187.34;5024867;28;20022;-63
2021/08/10 05:40:17;;;;;;;5.57;2.80;;;;;;;16.82;79.41;98188.38;5027759;28;20029;-61
2021/08/10 05:42:42;;;;;;;8.95;2.78;;;;;;;17.22;77.88;98185.84;5026936;28;20031;-61
2021/08/10 05:45:08;;;;;;;10.68;3.00;;;;;;;17.21;76.18;98189.41;5026025;28;20048;-61
2021/08/10 05:47:33;;;;;;;6.18;3.00;;;;;;;17.27;75.82;98183.72;5025482;28;20041;-61
2021/08/10 05:49:58;;;;;;;7.30;3.70;;;;;;;16.89;76.72;98180.94;5028129;28;20044;-62
2021/08/10 05:52:24;;;;;;;7.15;2.80;;;;;;;16.84;77.73;98175.97;5027061;28;20036;-62
2021/08/10 05:54:49;;;;;;;3.95;2.63;;;;;;;17.31;75.88;98169.44;5030687;28;20040;-64
2021/08/10 05:57:14;;;;;;;4.40;2.65;;;;;;;17.42;75.19;98173.13;5026533;28;20073;-63
2021/08/10 05:59:40;;;;;;;4.55;2.70;;;;;;;17.75;74.36;98177.09;5026122;28;20206;-61
2021/08/10 06:02:06;;;;;;;5.60;2.50;;;;;;;19.86;67.88;98172.66;5026884;28;20042;-61
2021/08/10 06:04:31;;;;;;;6.00;2.60;;;;;;;21.68;63.18;98177.63;5027764;28;20028;-62
2021/08/10 06:06:58;;;;;;;5.40;2.58;;;;;;;23.75;56.31;98171.06;5026362;28;20064;-62
2021/08/10 06:09:23;;;;;;;7.97;2.78;;;;;;;24.54;53.44;98177.91;5027964;28;20029;-62
2021/08/10 06:11:49;;;;;;;6.75;2.60;;;;;;;22.68;53.93;98174.41;5030967;28;20040;-62
2021/08/10 06:14:14;;;;;;;3.42;2.22;;;;;;;21.68;57.06;98173.16;5033246;28;20037;-63
2021/08/10 06:16:39;;;;;;;6.10;2.60;;;;;;;23.48;54.05;98167.28;5031398;28;20494;-63
2021/08/10 06:19:05;;;;;;;4.22;2.30;;;;;;;25.33;49.90;98163.97;5033854;28;20032;-61
2021/08/10 06:21:30;;;;;;;6.28;2.60;;;;;;;26.45;48.03;98162.44;5033783;28;20053;-62
2021/08/10 06:23:56;;;;;;;4.13;2.47;;;;;;;25.08;50.66;98168.19;5035624;28;20975;-62
2021/08/10 06:26:22;;;;;;;9.75;2.40;;;;;;;24.14;53.79;98165.66;5034626;28;20069;-62
2021/08/10 06:28:47;;;;;;;5.90;2.50;;;;;;;25.28;50.12;98154.75;5028839;28;20041;-65
2021/08/10 06:31:12;;;;;;;5.35;2.90;;;;;;;24.42;53.03;98153.22;5032329;28;20634;-62
2021/08/10 06:33:38;;;;;;;8.85;2.60;;;;;;;26.21;49.09;98154.28;5031467;28;20032;-62
2021/08/10 06:36:04;;;;;;;5.97;2.33;;;;;;;26.49;47.36;98144.25;5033573;28;20701;-63
2021/08/10 06:38:30;;;;;;;6.82;2.25;;;;;;;27.17;47.07;98163.88;5031126;28;20056;-62
2021/08/10 06:40:55;;;;;;;5.40;2.30;;;;;;;26.87;46.25;98176.84;5033117;28;20029;-60
2021/08/10 06:43:21;;;;;;;5.15;2.47;;;;;;;27.03;46.73;98168.84;5029579;28;20040;-62
2021/08/10 06:45:46;;;;;;;8.27;2.40;;;;;;;27.55;44.11;98162.44;5032689;28;20037;-63
2021/08/10 06:48:11;;;;;;;4.93;2.63;;;;;;;28.98;41.69;98154.56;5030360;28;20554;-62
2021/08/10 06:50:37;;;;;;;4.75;3.00;;;;;;;27.54;44.09;98160.78;5032873;28;20095;-60
2021/08/10 06:53:02;;;;;;;5.93;3.08;;;;;;;26.49;46.08;98168.31;5031739;28;20033;-61
2021/08/10 06:55:28;;;;;;;7.32;3.15;;;;;;;25.09;49.57;98172.53;5031487;28;20048;-63
2021/08/10 06:57:53;;;;;;;5.88;3.47;;;;;;;24.98;49.67;98170.94;5030694;28;20018;-61
2021/08/10 07:00:19;;;;;;;8.43;3.90;;;;;;;23.09;54.54;98175.25;5031774;28;20796;-60
2021/08/10 07:02:44;;;;;;;6.80;3.50;;;;;;;22.13;57.46;98167.59;5032106;28;20061;-62
2021/08/10 07:05:09;;;;;;;6.88;3.17;;;;;;;23.32;55.25;98156.34;5033264;28;20399;-62
2021/08/10 07:07:35;;;;;;;8.52;3.13;;;;;;;22.83;58.35;98167.75;5032523;28;20067;-61
2021/08/10 07:10:02;;;;;;;7.57;3.35;;;;;;;22.08;59.93;98164.47;5032518;28;20043;-60
2021/08/10 07:12:28;;;;;;;5.70;3.38;;;;;;;22.05;64.43;98159.41;5030635;28;20511;-62
2021/08/10 07:14:53;;;;;;;6.50;3.05;;;;;;;22.13;63.96;98156.97;5033049;28;20142;-60
2021/08/10 07:17:18;;;;;;;6.78;2.80;;;;;;;22.02;67.59;98166.81;5028741;28;20037;-62
2021/08/10 07:19:44;;;;;;;5.40;2.70;;;;;;;21.53;68.37;98175.28;5028390;28;20033;-60
2021/08/10 07:22:10;;;;;;;8.32;3.00;;;;;;;22.31;66.24;98169.63;5029044;28;20033;-60
2021/08/10 07:24:35;;;;;;;5.57;2.60;;;;;;;22.11;65.64;98169.53;5029740;28;20457;-63
2021/08/10 07:27:01;;;;;;;7.55;2.83;;;;;;;23.23;64.38;98169.53;5029195;28;20859;-60
2021/08/10 07:29:26;;;;;;;10.65;3.00;;;;;;;23.48;60.76;98154.78;5027570;28;20033;-60
2021/08/10 07:31:51;;;;;;;6.28;2.80;;;;;;;24.28;58.39;98156.34;5030902;28;20620;-62
2021/08/10 07:34:17;;;;;;;7.05;2.90;;;;;;;23.20;62.92;98166.28;5029217;28;20678;-63
2021/08/10 07:36:42;;;;;;;9.40;2.72;;;;;;;25.04;58.43;98156.13;5029307;28;20042;-60
2021/08/10 07:39:07;;;;;;;5.03;2.58;;;;;;;24.70;54.99;98146.06;5029717;28;20088;-60
2021/08/10 07:41:33;;;;;;;5.85;2.35;;;;;;;26.40;49.06;98150.56;5028340;28;20045;-61
2021/08/10 07:43:58;;;;;;;4.60;2.20;;;;;;;25.68;51.32;98158.75;5031137;28;20033;-61
2021/08/10 07:46:24;;;;;;;5.22;2.50;;;;;;;24.42;53.22;98151.38;5030194;28;20795;-61
2021/08/10 07:48:50;;;;;;;5.47;2.38;;;;;;;24.90;50.77;98145.97;5030342;28;20033;-62
2021/08/10 07:51:16;;;;;;;4.90;2.40;;;;;;;24.99;50.90;98139.72;5030038;28;20041;-62
2021/08/10 07:53:42;;;;;;;3.78;2.45;;;;;;;25.52;49.75;98128.25;5030440;28;20041;-64
2021/08/10 07:56:08;;;;;;;4.88;2.40;;;;;;;25.42;49.73;98135.50;5029385;28;20047;-61
2021/08/10 07:58:33;;;;;;;4.75;2.30;;;;;;;26.39;48.02;98127.47;5029815;28;20025;-63
2021/08/10 08:00:59;;;;;;;4.05;2.20;;;;;;;28.75;43.60;98116.94;5029446;28;20124;-63
2021/08/10 08:03:24;;;;;;;3.85;2.00;;;;;;;29.70;41.24;98113.09;5030278;28;20056;-61
2021/08/10 08:05:49;;;;;;;4.07;2.08;;;;;;;27.56;44.51;98115.06;5028747;28;20033;-61
2021/08/10 08:08:15;;;;;;;4.13;2.10;;;;;;;27.40;44.88;98126.59;5027541;28;20037;-61
2021/08/10 08:10:40;;;;;;;8.10;2.35;;;;;;;27.27;45.03;98137.81;5030254;28;20045;-60
2021/08/10 08:13:06;;;;;;;4.80;2.10;;;;;;;27.30;46.67;98143.69;5031221;28;20017;-63
2021/08/10 08:15:33;;;;;;;4.70;2.30;;;;;;;29.51;43.44;98137.78;5027579;28;20599;-61
2021/08/10 08:17:58;;;;;;;5.43;2.20;;;;;;;29.63;41.11;98136.34;5030297;28;20040;-60
2021/08/10 08:20:23;;;;;;;4.68;2.30;;;;;;;29.72;41.72;98140.63;5028441;28;20065;-60
2021/08/10 08:22:49;;;;;;;5.00;2.08;;;;;;;29.68;41.80;98128.56;5029559;28;20025;-61
2021/08/10 08:25:14;;;;;;;3.83;1.83;;;;;;;31.55;38.47;98120.22;5028449;28;20033;-61
2021/08/10 08:27:40;;;;;;;4.75;2.10;;;;;;;28.73;42.65;98118.13;5027385;28;20044;-62
2021/08/10 08:30:06;;;;;;;5.60;2.30;;;;;;;28.21;44.90;98114.97;5026844;28;20041;-65
2021/08/10 08:32:31;;;;;;;7.05;2.20;;;;;;;29.06;42.37;98115.25;5027865;28;20151;-63
2021/08/10 08:34:56;;;;;;;5.75;2.28;;;;;;;27.12;45.88;98117.00;5027688;28;20515;-61
2021/08/10 08:37:22;;;;;;;6.38;2.00;;;;;;;30.48;39.59;98108.28;5024484;28;20041;-63
2021/08/10 08:39:47;;;;;;;3.28;1.98;;;;;;;30.14;40.83;98108.81;5029895;28;20029;-63
2021/08/10 08:42:13;;;;;;;4.07;2.00;;;;;;;31.20;39.07;98114.69;5028359;28;20392;-60
2021/08/10 08:44:39;;;;;;;4.55;2.10;;;;;;;30.27;38.70;98105.47;5029691;28;20520;-62
2021/08/10 08:47:06;;;;;;;6.35;2.00;;;;;;;32.21;36.49;98102.88;5029489;28;20528;-63
2021/08/10 08:49:34;;;;;;;4.65;2.20;;;;;;;30.30;39.12;98105.09;5027359;28;20036;-64
2021/08/10 08:52:03;;;;;;;6.03;2.15;;;;;;;30.21;40.05;98101.66;5026621;28;20348;-60
2021/08/10 08:54:31;;;;;;;3.15;1.90;;;;;;;30.46;39.64;98114.88;5029121;28;20765;-61
2021/08/10 08:56:57;;;;;;;3.80;2.03;;;;;;;32.24;36.46;98115.94;5027629;28;20041;-63
2021/08/10 08:59:23;;;;;;;6.25;2.00;;;;;;;32.51;37.01;98113.41;5030082;28;20025;-61
2021/08/10 09:01:50;;;;;;;4.82;2.20;;;;;;;29.98;39.52;98107.16;5027991;28;20051;-63
2021/08/10 09:04:15;;;;;;;3.63;1.85;;;;;;;31.68;36.62;98096.06;5029040;28;20026;-62
2021/08/10 09:06:41;;;;;;;4.03;2.15;;;;;;;31.73;36.92;98097.34;5026796;28;20065;-61
2021/08/10 09:09:27;;;;;;;5.57;2.10;;;;;;;30.55;38.27;98093.03;5026878;28;20033;-62
2021/08/10 09:12:07;;;;;;;3.75;1.92;;;;;;;33.08;35.85;98092.41;5027076;28;20039;-63
2021/08/10 09:15:02;;;;;;;3.83;2.13;;;;;;;32.17;37.31;98088.13;5027236;28;20041;-61
2021/08/10 09:17:28;;;;;;;9.02;2.08;;;;;;;30.93;37.21;98092.88;5011112;28;20038;-64
2021/08/10 09:20:03;;;;;;;5.80;2.35;;;;;;;31.30;37.64;98099.06;5029169;28;20021;-62
2021/08/10 09:22:31;;;;;;;4.30;1.77;;;;;;;32.85;34.69;98093.63;5027385;28;20056;-62
2021/08/10 09:25:03;;;;;;;6.20;2.10;;;;;;;31.97;36.10;98091.50;5029229;28;20036;-63
2021/08/10 09:27:37;;;;;;;3.95;1.80;;;;;;;31.26;36.00;98089.66;5028439;28;20030;-63
2021/08/10 09:30:05;;;;;;;2.83;1.80;;;;;;;32.35;34.73;98092.97;5026275;28;20517;-61
2021/08/10 09:32:31;;;;;;;4.15;1.80;;;;;;;30.43;36.69;98083.78;5026540;28;20013;-61
2021/08/10 09:35:06;;;;;;;4.18;1.90;;;;;;;28.83;39.75;98091.91;5028211;28;20032;-60
2021/08/10 09:37:32;;;;;;;4.65;2.15;;;;;;;29.41;38.81;98093.19;5027106;28;20755;-61
2021/08/10 09:39:57;;;;;;;3.38;2.00;;;;;;;28.44;39.65;98087.41;5026996;28;20075;-63
2021/08/10 09:42:23;;;;;;;4.72;2.10;;;;;;;30.24;38.88;98084.34;5027196;28;20037;-61
2021/08/10 09:44:58;;;;;;;3.63;1.85;;;;;;;30.49;37.34;98082.19;5031935;28;20449;-62
2021/08/10 09:47:34;;;;;;;3.63;2.20;;;;;;;30.77;36.23;98095.78;5030211;28;20045;-64
2021/08/10 09:50:02;;;;;;;4.32;1.88;;;;;;;30.39;37.45;98085.19;5031788;28;20037;-61
2021/08/10 09:52:29;;;;;;;4.75;2.17;;;;;;;29.28;39.13;98089.44;5031438;28;20033;-61
2021/08/10 09:55:09;;;;;;;3.67;2.00;;;;;;;28.63;40.67;98092.34;5033376;28;20018;-61
2021/08/10 09:57:34;;;;;;;4.88;2.20;;;;;;;28.57;41.15;98106.47;5030255;28;20037;-62
2021/08/10 09:59:59;;;;;;;4.10;2.17;;;;;;;29.21;41.33;98102.78;5031148;28;20052;-61
2021/08/10 10:02:26;;;;;;;3.10;1.90;;;;;;;28.27;40.55;98102.72;5030242;28;20037;-61
2021/08/10 10:04:53;;;;;;;3.85;1.70;;;;;;;27.77;41.05;98101.97;5031422;28;20024;-63
2021/08/10 10:07:19;;;;;;;4.07;1.92;;;;;;;26.65;41.88;98112.25;5031070;28;20033;-60
2021/08/10 10:09:45;;;;;;;12.77;2.30;;;;;;;27.36;42.94;98112.72;5032633;28;20032;-60
2021/08/10 10:12:12;;;;;;;4.93;2.20;;;;;;;27.40;42.50;98111.38;5029027;28;20033;-63
2021/08/10 10:14:39;;;;;;;5.65;2.28;;;;;;;27.80;42.09;98116.88;5031457;28;20188;-60
2021/08/10 10:17:05;;;;;;;49.20;3.30;;;;;;;26.90;42.88;98123.00;5029629;28;20875;-61
2021/08/10 10:19:35;;;;;;;31.17;3.10;;;;;;;26.67;43.05;98112.06;5031034;28;20033;-61
2021/08/10 10:22:03;;;;;;;15.05;2.88;;;;;;;26.53;44.71;98113.50;5032517;28;20034;-62
2021/08/10 10:24:35;;;;;;;3.72;2.00;;;;;;;26.64;43.04;98113.22;5029851;28;20116;-60
2021/08/10 10:27:03;;;;;;;5.05;2.10;;;;;;;26.86;44.92;98110.97;5029977;28;20049;-63
2021/08/10 10:29:29;;;;;;;4.88;2.28;;;;;;;27.12;44.81;98108.97;5027860;28;20029;-61
2021/08/10 10:31:56;;;;;;;4.03;2.03;;;;;;;27.37;45.59;98111.72;5030748;28;20033;-61
2021/08/10 10:34:22;;;;;;;5.40;2.03;;;;;;;28.15;43.16;98112.97;5032431;28;20037;-60
2021/08/10 10:36:49;;;;;;;3.88;2.10;;;;;;;27.72;42.91;98106.16;5031552;28;20944;-62
2021/08/10 10:39:23;;;;;;;3.67;2.00;;;;;;;28.34;41.08;98097.47;5030539;28;20078;-63
2021/08/10 10:41:53;;;;;;;3.90;2.05;;;;;;;28.16;40.08;98098.56;5031329;28;20398;-60
2021/08/10 10:44:38;;;;;;;4.22;1.92;;;;;;;28.62;41.70;98101.41;5030721;28;20021;-61
2021/08/10 10:47:22;;;;;;;4.07;1.80;;;;;;;28.68;40.35;98091.00;5027568;28;21075;-60
2021/08/10 10:50:10;;;;;;;6.25;2.03;;;;;;;28.96;40.42;98100.19;5032898;28;20028;-62
2021/08/10 10:52:35;;;;;;;7.78;2.05;;;;;;;28.74;39.54;98099.16;5030431;28;20037;-60
2021/08/10 10:55:02;;;;;;;7.18;2.03;;;;;;;29.08;39.18;98097.09;5028488;28;20453;-62
2021/08/10 10:57:31;;;;;;;4.32;2.10;;;;;;;29.36;38.97;98098.28;5031060;28;20041;-63
2021/08/10 10:59:57;;;;;;;3.50;2.10;;;;;;;30.32;37.48;98085.06;5029283;28;20487;-62
2021/08/10 11:02:26;;;;;;;4.70;2.20;;;;;;;30.28;36.87;98091.81;5032161;28;20117;-63
2021/08/10 11:05:06;;;;;;;8.25;2.03;;;;;;;29.41;38.16;98084.31;5030359;28;20025;-63
2021/08/10 11:07:43;;;;;;;4.78;2.10;;;;;;;28.78;40.07;98083.53;5032543;28;20044;-65
2021/08/10 11:10:34;;;;;;;5.55;1.92;;;;;;;29.02;39.61;98075.34;5032429;28;20036;-63
2021/08/10 11:12:59;;;;;;;4.13;2.08;;;;;;;28.68;42.67;98089.16;5022774;28;20037;-63
2021/08/10 11:15:46;;;;;;;4.07;2.05;;;;;;;29.81;39.79;98082.25;5030774;28;20033;-62
2021/08/10 11:18:11;;;;;;;4.70;2.35;;;;;;;29.82;40.50;98080.44;5030018;28;20053;-62
2021/08/10 11:20:44;;;;;;;5.15;1.98;;;;;;;28.41;41.68;98082.38;5029891;28;20037;-61
2021/08/10 11:23:21;;;;;;;3.20;1.80;;;;;;;28.97;41.33;98077.72;5028537;28;20049;-61
2021/08/10 11:26:14;;;;;;;6.50;1.98;;;;;;;28.95;40.51;98074.38;5028728;28;20037;-64
2021/08/10 11:28:47;;;;;;;3.40;1.98;;;;;;;30.42;39.39;98074.03;5029954;28;20033;-64
2021/08/10 11:31:30;;;;;;;4.18;2.00;;;;;;;29.04;40.89;98077.81;5028314;28;20649;-64
2021/08/10 11:33:56;;;;;;;4.63;2.15;;;;;;;28.81;41.43;98077.84;5030401;28;20148;-64
2021/08/10 11:36:23;;;;;;;3.92;2.10;;;;;;;29.27;40.84;98077.88;5030778;28;20120;-63
2021/08/10 11:38:48;;;;;;;3.17;1.80;;;;;;;29.08;41.82;98078.31;5028358;28;20029;-60
2021/08/10 11:41:15;;;;;;;4.97;2.05;;;;;;;29.48;40.45;98068.28;5029798;28;20037;-61
2021/08/10 11:43:42;;;;;;;3.92;1.98;;;;;;;28.83;41.68;98081.16;5028622;28;20395;-63
2021/08/10 11:46:23;;;;;;;6.57;2.28;;;;;;;29.11;39.75;98078.78;5029035;28;20115;-63
2021/08/10 11:48:51;;;;;;;6.72;2.10;;;;;;;30.49;38.55;98074.97;5030035;28;20059;-61
2021/08/10 11:51:23;;;;;;;6.65;2.10;;;;;;;28.89;39.81;98068.88;5029485;28;20064;-63
2021/08/10 11:53:50;;;;;;;7.88;2.42;;;;;;;29.49;40.18;98069.97;5029479;28;20033;-63
2021/08/10 11:56:31;;;;;;;5.43;2.10;;;;;;;29.36;42.30;98081.31;5027164;28;20192;-62
2021/08/10 11:58:57;;;;;;;3.97;2.17;;;;;;;29.51;43.17;98079.50;5029312;28;20025;-62
2021/08/10 12:01:24;;;;;;;4.93;2.13;;;;;;;28.55;43.47;98078.97;5029321;28;20040;-62